sensor_id;sensor_type;location;lat;lon;timestamp;pressure;altitude;pressure_sealevel;temperature;humidity
13593;BME280;6867;50.998;4.250;2023-07-08T00:00:37;101275.41;;;19.46;68.66
13593;BME280;6867;50.998;4.250;2023-07-08T00:03:04;101270.47;;;19.43;68.54
13593;BME280;6867;50.998;4.250;2023-07-08T00:05:31;101268.00;;;19.41;69.04
13593;BME280;6867;50.998;4.250;2023-07-08T00:07:58;101268.50;;;19.38;69.32
13593;BME280;6867;50.998;4.250;2023-07-08T00:10:27;101270.72;;;19.41;69.31
13593;BME280;6867;50.998;4.250;2023-07-08T00:12:57;101263.31;;;19.37;69.27
13593;BME280;6867;50.998;4.250;2023-07-08T00:15:25;101261.31;;;19.27;69.53
13593;BME280;6867;50.998;4.250;2023-07-08T00:17:53;101263.94;;;19.22;69.71
13593;BME280;6867;50.998;4.250;2023-07-08T00:20:21;101264.72;;;19.17;69.73
13593;BME280;6867;50.998;4.250;2023-07-08T00:22:50;101278.22;;;19.07;70.32
13593;BME280;6867;50.998;4.250;2023-07-08T00:25:17;101271.28;;;19.00;70.37
13593;BME280;6867;50.998;4.250;2023-07-08T00:27:46;101274.41;;;19.08;70.62
13593;BME280;6867;50.998;4.250;2023-07-08T00:30:22;101271.34;;;19.05;70.65
13593;BME280;6867;50.998;4.250;2023-07-08T00:32:49;101267.00;;;19.04;70.85
13593;BME280;6867;50.998;4.250;2023-07-08T00:35:20;101265.84;;;19.00;71.00
13593;BME280;6867;50.998;4.250;2023-07-08T00:37:47;101266.16;;;19.03;70.81
13593;BME280;6867;50.998;4.250;2023-07-08T00:40:16;101265.84;;;19.00;70.69
13593;BME280;6867;50.998;4.250;2023-07-08T00:42:44;101273.63;;;18.91;70.71
13593;BME280;6867;50.998;4.250;2023-07-08T00:45:32;101264.31;;;18.87;70.59
13593;BME280;6867;50.998;4.250;2023-07-08T00:48:11;101257.78;;;18.88;70.37
13593;BME280;6867;50.998;4.250;2023-07-08T00:50:38;101256.41;;;18.85;70.17
13593;BME280;6867;50.998;4.250;2023-07-08T00:53:25;101259.63;;;18.82;70.59
13593;BME280;6867;50.998;4.250;2023-07-08T00:55:55;101246.56;;;18.84;70.34
13593;BME280;6867;50.998;4.250;2023-07-08T00:58:23;101253.78;;;18.74;70.82
13593;BME280;6867;50.998;4.250;2023-07-08T01:00:55;101250.13;;;18.68;71.24
13593;BME280;6867;50.998;4.250;2023-07-08T01:03:23;101263.31;;;18.59;71.60
13593;BME280;6867;50.998;4.250;2023-07-08T01:05:51;101267.88;;;18.54;72.14
13593;BME280;6867;50.998;4.250;2023-07-08T01:08:18;101257.16;;;18.47;72.28
13593;BME280;6867;50.998;4.250;2023-07-08T01:10:55;101267.22;;;18.47;72.45
13593;BME280;6867;50.998;4.250;2023-07-08T01:13:27;101270.94;;;18.40;72.96
13593;BME280;6867;50.998;4.250;2023-07-08T01:15:55;101261.13;;;18.39;72.71
13593;BME280;6867;50.998;4.250;2023-07-08T01:18:23;101259.97;;;18.35;72.85
13593;BME280;6867;50.998;4.250;2023-07-08T01:20:51;101254.53;;;18.35;72.87
13593;BME280;6867;50.998;4.250;2023-07-08T01:23:23;101249.09;;;18.35;73.08
13593;BME280;6867;50.998;4.250;2023-07-08T01:25:50;101255.34;;;18.36;73.01
13593;BME280;6867;50.998;4.250;2023-07-08T01:28:18;101246.69;;;18.39;72.62
13593;BME280;6867;50.998;4.250;2023-07-08T01:30:45;101246.38;;;18.35;72.25
13593;BME280;6867;50.998;4.250;2023-07-08T01:33:17;101252.53;;;18.31;72.46
13593;BME280;6867;50.998;4.250;2023-07-08T01:35:45;101246.47;;;18.24;72.54
13593;BME280;6867;50.998;4.250;2023-07-08T01:38:14;101252.63;;;18.19;73.20
13593;BME280;6867;50.998;4.250;2023-07-08T01:40:50;101258.06;;;18.19;73.35
13593;BME280;6867;50.998;4.250;2023-07-08T01:43:17;101254.28;;;18.20;73.43
13593;BME280;6867;50.998;4.250;2023-07-08T01:45:44;101256.81;;;18.10;73.93
13593;BME280;6867;50.998;4.250;2023-07-08T01:48:12;101257.31;;;18.07;74.08
13593;BME280;6867;50.998;4.250;2023-07-08T01:50:50;101259.78;;;18.08;74.16
13593;BME280;6867;50.998;4.250;2023-07-08T01:53:20;101251.97;;;18.12;74.23
13593;BME280;6867;50.998;4.250;2023-07-08T01:55:49;101253.59;;;18.13;73.96
13593;BME280;6867;50.998;4.250;2023-07-08T01:58:15;101243.47;;;18.08;74.09
13593;BME280;6867;50.998;4.250;2023-07-08T02:00:42;101235.06;;;18.10;73.87
13593;BME280;6867;50.998;4.250;2023-07-08T02:03:09;101225.34;;;18.14;73.48
13593;BME280;6867;50.998;4.250;2023-07-08T02:05:36;101223.38;;;18.09;73.35
13593;BME280;6867;50.998;4.250;2023-07-08T02:08:03;101227.50;;;18.12;73.38
13593;BME280;6867;50.998;4.250;2023-07-08T02:10:30;101230.13;;;18.07;73.55
13593;BME280;6867;50.998;4.250;2023-07-08T02:12:58;101226.81;;;18.05;73.63
13593;BME280;6867;50.998;4.250;2023-07-08T02:15:25;101234.81;;;17.95;73.83
13593;BME280;6867;50.998;4.250;2023-07-08T02:17:52;101233.06;;;17.88;74.06
13593;BME280;6867;50.998;4.250;2023-07-08T02:20:18;101233.31;;;17.87;73.79
13593;BME280;6867;50.998;4.250;2023-07-08T02:22:45;101228.97;;;17.86;73.77
13593;BME280;6867;50.998;4.250;2023-07-08T02:25:12;101235.94;;;17.82;73.72
13593;BME280;6867;50.998;4.250;2023-07-08T02:27:39;101235.03;;;17.76;73.88
13593;BME280;6867;50.998;4.250;2023-07-08T02:30:08;101228.75;;;17.76;74.28
13593;BME280;6867;50.998;4.250;2023-07-08T02:32:35;101240.81;;;17.68;74.22
13593;BME280;6867;50.998;4.250;2023-07-08T02:35:04;101229.84;;;17.63;74.15
13593;BME280;6867;50.998;4.250;2023-07-08T02:37:31;101236.28;;;17.57;74.19
13593;BME280;6867;50.998;4.250;2023-07-08T02:39:58;101240.06;;;17.56;74.62
13593;BME280;6867;50.998;4.250;2023-07-08T02:42:25;101235.13;;;17.53;74.68
13593;BME280;6867;50.998;4.250;2023-07-08T02:44:52;101242.66;;;17.51;74.69
13593;BME280;6867;50.998;4.250;2023-07-08T02:47:20;101233.69;;;17.50;74.52
13593;BME280;6867;50.998;4.250;2023-07-08T02:49:46;101237.13;;;17.46;74.47
13593;BME280;6867;50.998;4.250;2023-07-08T02:52:13;101233.84;;;17.43;74.71
13593;BME280;6867;50.998;4.250;2023-07-08T02:54:40;101236.78;;;17.42;74.51
13593;BME280;6867;50.998;4.250;2023-07-08T02:57:06;101233.50;;;17.40;74.80
13593;BME280;6867;50.998;4.250;2023-07-08T02:59:33;101229.16;;;17.39;74.94
13593;BME280;6867;50.998;4.250;2023-07-08T03:02:00;101242.25;;;17.30;75.18
13593;BME280;6867;50.998;4.250;2023-07-08T03:04:28;101240.16;;;17.32;75.35
13593;BME280;6867;50.998;4.250;2023-07-08T03:06:55;101242.25;;;17.30;75.72
13593;BME280;6867;50.998;4.250;2023-07-08T03:09:22;101244.88;;;17.25;75.59
13593;BME280;6867;50.998;4.250;2023-07-08T03:11:48;101254.47;;;17.16;75.48
13593;BME280;6867;50.998;4.250;2023-07-08T03:14:15;101259.78;;;17.11;75.76
13593;BME280;6867;50.998;4.250;2023-07-08T03:16:42;101254.84;;;17.08;76.08
13593;BME280;6867;50.998;4.250;2023-07-08T03:19:10;101256.97;;;17.06;76.17
13593;BME280;6867;50.998;4.250;2023-07-08T03:21:41;101251.78;;;17.04;76.25
13593;BME280;6867;50.998;4.250;2023-07-08T03:24:09;101252.38;;;17.06;76.26
13593;BME280;6867;50.998;4.250;2023-07-08T03:26:37;101250.03;;;16.98;76.51
13593;BME280;6867;50.998;4.250;2023-07-08T03:29:04;101253.09;;;17.02;76.68
13593;BME280;6867;50.998;4.250;2023-07-08T03:31:30;101264.63;;;17.09;76.59
13593;BME280;6867;50.998;4.250;2023-07-08T03:33:57;101260.16;;;17.14;76.26
13593;BME280;6867;50.998;4.250;2023-07-08T03:36:24;101259.16;;;17.21;76.21
13593;BME280;6867;50.998;4.250;2023-07-08T03:38:53;101255.25;;;17.28;76.19
13593;BME280;6867;50.998;4.250;2023-07-08T03:41:21;101251.56;;;17.34;75.78
13593;BME280;6867;50.998;4.250;2023-07-08T03:43:48;101245.66;;;17.37;75.41
13593;BME280;6867;50.998;4.250;2023-07-08T03:46:16;101250.88;;;17.39;75.76
13593;BME280;6867;50.998;4.250;2023-07-08T03:48:43;101247.09;;;17.40;75.80
13593;BME280;6867;50.998;4.250;2023-07-08T03:51:15;101250.47;;;17.47;75.67
13593;BME280;6867;50.998;4.250;2023-07-08T03:53:43;101238.56;;;17.48;75.16
13593;BME280;6867;50.998;4.250;2023-07-08T03:56:12;101233.59;;;17.45;75.04
13593;BME280;6867;50.998;4.250;2023-07-08T03:58:39;101241.28;;;17.48;75.13
13593;BME280;6867;50.998;4.250;2023-07-08T04:01:10;101242.19;;;17.54;75.21
13593;BME280;6867;50.998;4.250;2023-07-08T04:03:39;101238.91;;;17.52;75.29
13593;BME280;6867;50.998;4.250;2023-07-08T04:06:06;101231.41;;;17.59;75.23
13593;BME280;6867;50.998;4.250;2023-07-08T04:08:33;101235.81;;;17.60;74.97
13593;BME280;6867;50.998;4.250;2023-07-08T04:10:59;101230.94;;;17.62;75.00
13593;BME280;6867;50.998;4.250;2023-07-08T04:13:27;101237.19;;;17.62;74.93
13593;BME280;6867;50.998;4.250;2023-07-08T04:15:55;101234.00;;;17.65;74.88
13593;BME280;6867;50.998;4.250;2023-07-08T04:18:23;101223.94;;;17.66;74.70
13593;BME280;6867;50.998;4.250;2023-07-08T04:20:50;101226.53;;;17.73;74.65
13593;BME280;6867;50.998;4.250;2023-07-08T04:23:18;101236.44;;;17.79;74.45
13593;BME280;6867;50.998;4.250;2023-07-08T04:25:45;101224.34;;;17.86;74.17
13593;BME280;6867;50.998;4.250;2023-07-08T04:28:13;101224.69;;;17.90;73.92
13593;BME280;6867;50.998;4.250;2023-07-08T04:30:42;101227.34;;;18.02;74.08
13593;BME280;6867;50.998;4.250;2023-07-08T04:33:09;101223.06;;;18.06;73.96
13593;BME280;6867;50.998;4.250;2023-07-08T04:35:36;101222.63;;;18.14;73.84
13593;BME280;6867;50.998;4.250;2023-07-08T04:38:04;101217.03;;;18.21;73.70
13593;BME280;6867;50.998;4.250;2023-07-08T04:40:35;101218.44;;;18.23;73.32
13593;BME280;6867;50.998;4.250;2023-07-08T04:43:02;101226.34;;;18.25;73.76
13593;BME280;6867;50.998;4.250;2023-07-08T04:45:29;101228.31;;;18.29;73.72
13593;BME280;6867;50.998;4.250;2023-07-08T04:47:57;101224.09;;;18.38;73.66
13593;BME280;6867;50.998;4.250;2023-07-08T04:50:24;101213.72;;;18.52;73.18
13593;BME280;6867;50.998;4.250;2023-07-08T04:52:51;101213.03;;;18.62;72.72
13593;BME280;6867;50.998;4.250;2023-07-08T04:55:18;101210.66;;;18.65;72.61
13593;BME280;6867;50.998;4.250;2023-07-08T04:57:44;101208.41;;;18.79;72.53
13593;BME280;6867;50.998;4.250;2023-07-08T05:00:15;101211.63;;;18.76;72.95
13593;BME280;6867;50.998;4.250;2023-07-08T05:02:42;101233.50;;;18.81;73.22
13593;BME280;6867;50.998;4.250;2023-07-08T05:05:10;101226.31;;;18.97;73.34
13593;BME280;6867;50.998;4.250;2023-07-08T05:07:37;101237.91;;;19.09;73.37
13593;BME280;6867;50.998;4.250;2023-07-08T05:10:05;101234.94;;;19.33;72.82
13593;BME280;6867;50.998;4.250;2023-07-08T05:12:31;101239.13;;;19.40;72.48
13593;BME280;6867;50.998;4.250;2023-07-08T05:14:58;101231.69;;;19.58;72.24
13593;BME280;6867;50.998;4.250;2023-07-08T05:17:26;101227.56;;;19.77;71.96
13593;BME280;6867;50.998;4.250;2023-07-08T05:19:53;101225.53;;;19.95;71.11
13593;BME280;6867;50.998;4.250;2023-07-08T05:22:23;101222.72;;;20.17;70.62
13593;BME280;6867;50.998;4.250;2023-07-08T05:24:51;101218.44;;;20.31;70.10
13593;BME280;6867;50.998;4.250;2023-07-08T05:27:20;101198.34;;;20.42;69.19
13593;BME280;6867;50.998;4.250;2023-07-08T05:29:47;101196.31;;;20.64;68.72
13593;BME280;6867;50.998;4.250;2023-07-08T05:32:14;101179.81;;;20.86;67.47
13593;BME280;6867;50.998;4.250;2023-07-08T05:34:40;101171.94;;;21.00;66.81
13593;BME280;6867;50.998;4.250;2023-07-08T05:37:07;101164.88;;;21.14;65.89
13593;BME280;6867;50.998;4.250;2023-07-08T05:39:35;101163.00;;;21.20;65.09
13593;BME280;6867;50.998;4.250;2023-07-08T05:42:01;101168.25;;;21.32;65.11
13593;BME280;6867;50.998;4.250;2023-07-08T05:44:28;101164.13;;;21.39;64.58
13593;BME280;6867;50.998;4.250;2023-07-08T05:46:55;101164.72;;;21.52;64.63
13593;BME280;6867;50.998;4.250;2023-07-08T05:49:22;101164.75;;;21.67;64.34
13593;BME280;6867;50.998;4.250;2023-07-08T05:51:48;101164.72;;;21.77;64.20
13593;BME280;6867;50.998;4.250;2023-07-08T05:54:15;101161.44;;;21.85;63.83
13593;BME280;6867;50.998;4.250;2023-07-08T05:56:43;101160.38;;;21.97;63.45
13593;BME280;6867;50.998;4.250;2023-07-08T05:59:10;101137.38;;;22.08;62.52
13593;BME280;6867;50.998;4.250;2023-07-08T06:01:36;101143.41;;;22.20;62.53
13593;BME280;6867;50.998;4.250;2023-07-08T06:04:03;101158.44;;;22.33;62.38
13593;BME280;6867;50.998;4.250;2023-07-08T06:06:30;101147.69;;;22.57;62.01
13593;BME280;6867;50.998;4.250;2023-07-08T06:08:57;101124.72;;;22.58;60.95
13593;BME280;6867;50.998;4.250;2023-07-08T06:11:23;101124.63;;;22.73;60.54
13593;BME280;6867;50.998;4.250;2023-07-08T06:13:51;101115.00;;;22.91;59.80
13593;BME280;6867;50.998;4.250;2023-07-08T06:16:18;101097.72;;;22.96;58.49
13593;BME280;6867;50.998;4.250;2023-07-08T06:18:45;101105.94;;;22.96;58.48
13593;BME280;6867;50.998;4.250;2023-07-08T06:21:11;101087.81;;;23.05;58.02
13593;BME280;6867;50.998;4.250;2023-07-08T06:23:38;101131.00;;;23.18;58.65
13593;BME280;6867;50.998;4.250;2023-07-08T06:26:05;101114.47;;;23.33;58.19
13593;BME280;6867;50.998;4.250;2023-07-08T06:28:31;101111.34;;;23.50;57.61
13593;BME280;6867;50.998;4.250;2023-07-08T06:30:59;101112.59;;;23.68;57.71
13593;BME280;6867;50.998;4.250;2023-07-08T06:33:26;101091.66;;;23.77;56.78
13593;BME280;6867;50.998;4.250;2023-07-08T06:35:52;101086.91;;;23.88;56.39
13593;BME280;6867;50.998;4.250;2023-07-08T06:38:19;101104.56;;;24.06;56.36
13593;BME280;6867;50.998;4.250;2023-07-08T06:40:46;101074.94;;;24.03;55.90
13593;BME280;6867;50.998;4.250;2023-07-08T06:43:12;101102.09;;;24.33;55.99
13593;BME280;6867;50.998;4.250;2023-07-08T06:45:40;101094.63;;;24.39;55.58
13593;BME280;6867;50.998;4.250;2023-07-08T06:48:08;101110.56;;;24.61;55.94
13593;BME280;6867;50.998;4.250;2023-07-08T06:50:34;101100.84;;;24.69;55.22
13593;BME280;6867;50.998;4.250;2023-07-08T06:53:01;101096.81;;;24.85;55.12
13593;BME280;6867;50.998;4.250;2023-07-08T06:55:28;101071.41;;;24.93;53.81
13593;BME280;6867;50.998;4.250;2023-07-08T06:57:55;101080.38;;;24.99;53.94
13593;BME280;6867;50.998;4.250;2023-07-08T07:00:22;101073.06;;;25.13;54.03
13593;BME280;6867;50.998;4.250;2023-07-08T07:02:48;101095.84;;;25.32;53.98
13593;BME280;6867;50.998;4.250;2023-07-08T07:05:16;101107.47;;;25.29;54.39
13593;BME280;6867;50.998;4.250;2023-07-08T07:07:43;101128.56;;;25.34;54.82
13593;BME280;6867;50.998;4.250;2023-07-08T07:10:10;101098.59;;;25.32;53.52
13593;BME280;6867;50.998;4.250;2023-07-08T07:12:36;101112.34;;;25.32;53.64
13593;BME280;6867;50.998;4.250;2023-07-08T07:15:04;101127.03;;;25.61;54.15
13593;BME280;6867;50.998;4.250;2023-07-08T07:17:31;101128.75;;;25.56;53.95
13593;BME280;6867;50.998;4.250;2023-07-08T07:19:57;101124.78;;;25.81;53.08
13593;BME280;6867;50.998;4.250;2023-07-08T07:22:25;101165.97;;;25.87;54.60
13593;BME280;6867;50.998;4.250;2023-07-08T07:24:52;101142.09;;;26.01;53.87
13593;BME280;6867;50.998;4.250;2023-07-08T07:27:19;101098.38;;;26.27;52.40
13593;BME280;6867;50.998;4.250;2023-07-08T07:29:47;101103.38;;;26.66;52.47
13593;BME280;6867;50.998;4.250;2023-07-08T07:32:14;101110.63;;;26.62;52.25
13593;BME280;6867;50.998;4.250;2023-07-08T07:34:41;101137.56;;;26.65;52.78
13593;BME280;6867;50.998;4.250;2023-07-08T07:37:11;101120.84;;;26.75;52.54
13593;BME280;6867;50.998;4.250;2023-07-08T07:39:40;101097.22;;;27.11;51.45
13593;BME280;6867;50.998;4.250;2023-07-08T07:42:07;101082.50;;;27.83;50.18
13593;BME280;6867;50.998;4.250;2023-07-08T07:44:34;101067.03;;;28.52;48.57
13593;BME280;6867;50.998;4.250;2023-07-08T07:47:02;101087.63;;;29.21;48.21
13593;BME280;6867;50.998;4.250;2023-07-08T07:49:29;101039.59;;;29.43;46.74
13593;BME280;6867;50.998;4.250;2023-07-08T07:51:56;101022.13;;;29.77;45.03
13593;BME280;6867;50.998;4.250;2023-07-08T07:54:22;101017.88;;;30.18;44.47
13593;BME280;6867;50.998;4.250;2023-07-08T07:56:51;101014.63;;;30.66;43.89
13593;BME280;6867;50.998;4.250;2023-07-08T07:59:18;100993.41;;;31.12;43.02
13593;BME280;6867;50.998;4.250;2023-07-08T08:01:44;100999.09;;;31.49;42.72
13593;BME280;6867;50.998;4.250;2023-07-08T08:04:11;101002.75;;;32.11;42.18
13593;BME280;6867;50.998;4.250;2023-07-08T08:06:38;100938.06;;;31.98;40.75
13593;BME280;6867;50.998;4.250;2023-07-08T08:09:05;100925.78;;;32.52;39.45
13593;BME280;6867;50.998;4.250;2023-07-08T08:11:32;100934.94;;;32.80;39.01
13593;BME280;6867;50.998;4.250;2023-07-08T08:14:01;100931.06;;;32.97;38.66
13593;BME280;6867;50.998;4.250;2023-07-08T08:16:29;100938.19;;;32.82;39.08
13593;BME280;6867;50.998;4.250;2023-07-08T08:18:55;100927.53;;;33.12;37.94
13593;BME280;6867;50.998;4.250;2023-07-08T08:21:22;100952.94;;;33.27;37.88
13593;BME280;6867;50.998;4.250;2023-07-08T08:23:52;100985.72;;;33.61;38.51
13593;BME280;6867;50.998;4.250;2023-07-08T08:26:18;101026.00;;;33.52;39.70
13593;BME280;6867;50.998;4.250;2023-07-08T08:28:45;101044.69;;;33.23;40.08
13593;BME280;6867;50.998;4.250;2023-07-08T08:31:13;101033.56;;;33.51;39.93
13593;BME280;6867;50.998;4.250;2023-07-08T08:33:40;101016.69;;;33.76;39.02
13593;BME280;6867;50.998;4.250;2023-07-08T08:36:06;101030.63;;;33.76;39.16
13593;BME280;6867;50.998;4.250;2023-07-08T08:38:33;101033.25;;;34.00;38.85
13593;BME280;6867;50.998;4.250;2023-07-08T08:41:03;101013.22;;;34.61;37.45
13593;BME280;6867;50.998;4.250;2023-07-08T08:43:35;101023.47;;;34.41;38.04
13593;BME280;6867;50.998;4.250;2023-07-08T08:46:05;100997.63;;;34.80;37.07
13593;BME280;6867;50.998;4.250;2023-07-08T08:48:38;100993.97;;;34.76;36.67
13593;BME280;6867;50.998;4.250;2023-07-08T08:51:13;101025.25;;;35.24;37.17
13593;BME280;6867;50.998;4.250;2023-07-08T08:53:40;101000.22;;;35.08;37.04
13593;BME280;6867;50.998;4.250;2023-07-08T08:56:14;101024.19;;;35.32;36.97
13593;BME280;6867;50.998;4.250;2023-07-08T08:58:44;101032.00;;;35.42;37.42
13593;BME280;6867;50.998;4.250;2023-07-08T09:01:13;101030.41;;;35.64;37.12
13593;BME280;6867;50.998;4.250;2023-07-08T09:03:46;101006.88;;;35.65;36.43
13593;BME280;6867;50.998;4.250;2023-07-08T09:06:16;101001.34;;;35.46;36.69
13593;BME280;6867;50.998;4.250;2023-07-08T09:08:46;100943.41;;;35.42;34.57
13593;BME280;6867;50.998;4.250;2023-07-08T09:11:20;100955.72;;;35.38;34.88
13593;BME280;6867;50.998;4.250;2023-07-08T09:13:50;101019.63;;;35.43;36.84
13593;BME280;6867;50.998;4.250;2023-07-08T09:16:23;101015.31;;;35.68;35.67
13593;BME280;6867;50.998;4.250;2023-07-08T09:18:59;101028.81;;;35.63;36.94
13593;BME280;6867;50.998;4.250;2023-07-08T09:21:33;100960.03;;;35.55;35.20
13593;BME280;6867;50.998;4.250;2023-07-08T09:24:07;100999.72;;;35.90;35.26
13593;BME280;6867;50.998;4.250;2023-07-08T09:26:36;100977.75;;;36.15;34.67
13593;BME280;6867;50.998;4.250;2023-07-08T09:29:08;100974.19;;;36.45;34.18
13593;BME280;6867;50.998;4.250;2023-07-08T09:31:37;100956.34;;;36.27;34.15
13593;BME280;6867;50.998;4.250;2023-07-08T09:34:10;100951.72;;;36.38;33.79
13593;BME280;6867;50.998;4.250;2023-07-08T09:36:40;100980.75;;;36.00;35.03
13593;BME280;6867;50.998;4.250;2023-07-08T09:39:10;100967.13;;;36.25;34.13
13593;BME280;6867;50.998;4.250;2023-07-08T09:41:38;100955.53;;;35.73;34.40
13593;BME280;6867;50.998;4.250;2023-07-08T09:44:14;100933.34;;;34.53;35.74
13593;BME280;6867;50.998;4.250;2023-07-08T09:46:41;100947.38;;;33.90;36.27
13593;BME280;6867;50.998;4.250;2023-07-08T09:49:24;100944.97;;;33.72;36.03
13593;BME280;6867;50.998;4.250;2023-07-08T09:51:53;100982.28;;;33.68;36.65
13593;BME280;6867;50.998;4.250;2023-07-08T09:54:21;100918.81;;;33.30;35.56
13593;BME280;6867;50.998;4.250;2023-07-08T09:56:58;100898.00;;;33.24;34.44
13593;BME280;6867;50.998;4.250;2023-07-08T09:59:29;100960.84;;;32.68;37.38
13593;BME280;6867;50.998;4.250;2023-07-08T10:02:00;101013.59;;;32.65;38.25
13593;BME280;6867;50.998;4.250;2023-07-08T10:04:29;100963.88;;;32.63;36.83
13593;BME280;6867;50.998;4.250;2023-07-08T10:06:56;100961.38;;;32.86;36.68
13593;BME280;6867;50.998;4.250;2023-07-08T10:09:24;100964.47;;;32.97;36.62
13593;BME280;6867;50.998;4.250;2023-07-08T10:11:54;101003.88;;;32.99;37.62
13593;BME280;6867;50.998;4.250;2023-07-08T10:14:28;101012.47;;;32.94;37.76
13593;BME280;6867;50.998;4.250;2023-07-08T10:16:56;100966.19;;;32.89;36.37
13593;BME280;6867;50.998;4.250;2023-07-08T10:19:23;100970.44;;;33.11;36.24
13593;BME280;6867;50.998;4.250;2023-07-08T10:22:07;100972.16;;;33.32;36.13
13593;BME280;6867;50.998;4.250;2023-07-08T10:24:48;100958.09;;;33.56;35.28
13593;BME280;6867;50.998;4.250;2023-07-08T10:27:23;101033.16;;;33.37;37.96
13593;BME280;6867;50.998;4.250;2023-07-08T10:30:01;101013.16;;;33.47;37.03
13593;BME280;6867;50.998;4.250;2023-07-08T10:32:37;100982.09;;;33.45;36.20
13593;BME280;6867;50.998;4.250;2023-07-08T10:35:14;100904.19;;;33.64;34.44
13593;BME280;6867;50.998;4.250;2023-07-08T10:37:53;100970.66;;;33.82;35.27
13593;BME280;6867;50.998;4.250;2023-07-08T10:40:39;100919.25;;;33.95;33.63
13593;BME280;6867;50.998;4.250;2023-07-08T10:43:30;100971.16;;;34.00;34.78
13593;BME280;6867;50.998;4.250;2023-07-08T10:46:11;100911.81;;;33.83;33.89
13593;BME280;6867;50.998;4.250;2023-07-08T10:49:03;100908.38;;;33.90;33.32
13593;BME280;6867;50.998;4.250;2023-07-08T10:51:38;100901.03;;;33.98;33.05
13593;BME280;6867;50.998;4.250;2023-07-08T10:54:28;100876.09;;;33.54;32.07
13593;BME280;6867;50.998;4.250;2023-07-08T10:57:06;100892.25;;;33.64;32.74
13593;BME280;6867;50.998;4.250;2023-07-08T10:59:44;100916.66;;;34.02;32.73
13593;BME280;6867;50.998;4.250;2023-07-08T11:05:21;100986.09;;;34.27;33.97
13593;BME280;6867;50.998;4.250;2023-07-08T11:07:54;100957.97;;;34.51;33.71
13593;BME280;6867;50.998;4.250;2023-07-08T11:10:26;100906.88;;;34.47;32.11
13593;BME280;6867;50.998;4.250;2023-07-08T11:12:58;100962.06;;;34.38;33.08
13593;BME280;6867;50.998;4.250;2023-07-08T11:15:29;100943.47;;;34.26;33.48
13593;BME280;6867;50.998;4.250;2023-07-08T11:18:00;100939.81;;;34.41;32.28
13593;BME280;6867;50.998;4.250;2023-07-08T11:20:36;100975.19;;;34.37;33.27
13593;BME280;6867;50.998;4.250;2023-07-08T11:23:10;100919.91;;;34.59;32.50
13593;BME280;6867;50.998;4.250;2023-07-08T11:25:44;100926.63;;;34.97;31.43
13593;BME280;6867;50.998;4.250;2023-07-08T11:28:16;100989.41;;;35.06;33.01
13593;BME280;6867;50.998;4.250;2023-07-08T11:30:46;100932.84;;;35.09;32.09
13593;BME280;6867;50.998;4.250;2023-07-08T11:33:15;100977.72;;;35.20;32.75
13593;BME280;6867;50.998;4.250;2023-07-08T11:35:46;100987.03;;;35.28;32.76
13593;BME280;6867;50.998;4.250;2023-07-08T11:38:16;100974.97;;;35.24;32.79
13593;BME280;6867;50.998;4.250;2023-07-08T11:40:53;100948.72;;;35.48;32.02
13593;BME280;6867;50.998;4.250;2023-07-08T11:43:23;100931.75;;;35.60;31.30
13593;BME280;6867;50.998;4.250;2023-07-08T11:45:54;100929.03;;;35.63;31.27
13593;BME280;6867;50.998;4.250;2023-07-08T11:48:23;100945.25;;;35.81;31.52
13593;BME280;6867;50.998;4.250;2023-07-08T11:50:52;101006.38;;;35.59;33.35
13593;BME280;6867;50.998;4.250;2023-07-08T11:53:35;100931.31;;;35.35;31.51
13593;BME280;6867;50.998;4.250;2023-07-08T11:56:19;100921.88;;;35.43;31.58
13593;BME280;6867;50.998;4.250;2023-07-08T11:58:59;100920.09;;;35.54;31.47
13593;BME280;6867;50.998;4.250;2023-07-08T12:01:37;100908.41;;;35.72;31.14
13593;BME280;6867;50.998;4.250;2023-07-08T12:04:17;100918.47;;;35.53;31.22
13593;BME280;6867;50.998;4.250;2023-07-08T12:06:47;100931.78;;;35.86;31.57
13593;BME280;6867;50.998;4.250;2023-07-08T12:09:20;100871.09;;;36.13;29.36
13593;BME280;6867;50.998;4.250;2023-07-08T12:11:54;100850.63;;;36.39;28.80
13593;BME280;6867;50.998;4.250;2023-07-08T12:14:22;100929.34;;;36.38;31.06
13593;BME280;6867;50.998;4.250;2023-07-08T12:16:49;100951.91;;;36.52;31.52
13593;BME280;6867;50.998;4.250;2023-07-08T12:19:17;100982.47;;;36.64;32.38
13593;BME280;6867;50.998;4.250;2023-07-08T12:21:46;100887.56;;;37.27;28.86
13593;BME280;6867;50.998;4.250;2023-07-08T12:24:14;100839.22;;;37.37;27.23
13593;BME280;6867;50.998;4.250;2023-07-08T12:26:41;100904.16;;;37.05;29.98
13593;BME280;6867;50.998;4.250;2023-07-08T12:29:10;100919.22;;;37.31;30.26
13593;BME280;6867;50.998;4.250;2023-07-08T12:31:38;100916.69;;;37.19;30.00
13593;BME280;6867;50.998;4.250;2023-07-08T12:34:10;100853.81;;;37.60;27.78
13593;BME280;6867;50.998;4.250;2023-07-08T12:36:38;100927.47;;;37.61;29.68
13593;BME280;6867;50.998;4.250;2023-07-08T12:39:05;100932.56;;;37.96;30.01
13593;BME280;6867;50.998;4.250;2023-07-08T12:41:34;100921.50;;;38.28;29.04
13593;BME280;6867;50.998;4.250;2023-07-08T12:44:01;100871.44;;;38.27;27.94
13593;BME280;6867;50.998;4.250;2023-07-08T12:46:30;100868.69;;;38.37;27.63
13593;BME280;6867;50.998;4.250;2023-07-08T12:48:57;100939.22;;;38.36;28.92
13593;BME280;6867;50.998;4.250;2023-07-08T12:51:25;100911.78;;;38.08;29.08
13593;BME280;6867;50.998;4.250;2023-07-08T12:53:53;100958.22;;;37.98;29.74
13593;BME280;6867;50.998;4.250;2023-07-08T12:56:22;100878.84;;;37.87;27.97
13593;BME280;6867;50.998;4.250;2023-07-08T12:58:51;100872.50;;;38.01;27.49
13593;BME280;6867;50.998;4.250;2023-07-08T13:01:20;100923.91;;;38.26;27.84
13593;BME280;6867;50.998;4.250;2023-07-08T13:03:51;100912.84;;;38.51;27.84
13593;BME280;6867;50.998;4.250;2023-07-08T13:06:21;100912.59;;;39.06;27.17
13593;BME280;6867;50.998;4.250;2023-07-08T13:08:48;100994.16;;;39.78;28.62
13593;BME280;6867;50.998;4.250;2023-07-08T13:11:19;101002.50;;;40.46;28.27
13593;BME280;6867;50.998;4.250;2023-07-08T13:13:59;100969.88;;;40.63;27.51